Time;durP1;ratioP1;P1;durP2;ratioP2;P2;SDS_P1;SDS_P2;PMS_P1;PMS_P2;Temp;Humidity;BMP_temperature;BMP_pressure;BME280_temperature;BME280_humidity;BME280_pressure;Samples;Min_cycle;Max_cycle;Signal;HPM_P1;HPM_P2
2024/01/23 00:00:24;;;;;;;19.00;3.00;;;;;;;7.42;85.81;101636.28;5039362;28;20032;-67
2024/01/23 00:02:50;;;;;;;18.70;3.00;;;;;;;7.39;86.12;101649.75;5037958;28;20136;-67
2024/01/23 00:05:15;;;;;;;16.67;3.20;;;;;;;7.33;86.40;101645.00;5040657;28;20033;-67
2024/01/23 00:07:40;;;;;;;17.73;3.45;;;;;;;7.34;86.08;101663.38;5041308;28;20033;-67
2024/01/23 00:10:06;;;;;;;19.58;3.55;;;;;;;7.37;85.90;101655.19;5040822;28;20032;-67
2024/01/23 00:12:31;;;;;;;20.08;3.33;;;;;;;7.33;86.10;101658.22;5038107;28;20021;-67
2024/01/23 00:14:58;;;;;;;20.63;3.65;;;;;;;7.37;85.98;101670.19;5040556;28;20107;-67
2024/01/23 00:17:24;;;;;;;15.40;3.25;;;;;;;7.37;86.03;101680.75;5034892;28;20028;-67
2024/01/23 00:19:49;;;;;;;18.75;3.58;;;;;;;7.43;85.71;101681.06;5041497;28;20017;-67
2024/01/23 00:22:14;;;;;;;17.60;3.47;;;;;;;7.44;85.60;101682.75;5038280;28;20040;-67
2024/01/23 00:24:40;;;;;;;16.35;3.53;;;;;;;7.37;85.47;101717.75;5039096;28;20025;-67
2024/01/23 00:27:05;;;;;;;13.32;3.03;;;;;;;7.37;85.89;101699.25;5035891;28;20025;-67
2024/01/23 00:29:30;;;;;;;9.13;2.42;;;;;;;7.35;85.43;101695.91;5038905;28;20064;-67
2024/01/23 00:31:56;;;;;;;17.77;3.60;;;;;;;7.33;85.79;101708.41;5039173;28;20025;-67
2024/01/23 00:34:21;;;;;;;12.30;3.60;;;;;;;7.37;85.79;101709.81;5041045;28;20652;-67
2024/01/23 00:36:46;;;;;;;21.33;3.60;;;;;;;7.31;85.99;101723.56;5039462;28;20035;-67
2024/01/23 00:39:12;;;;;;;15.15;3.05;;;;;;;7.30;86.29;101719.25;5040822;28;20478;-67
2024/01/23 00:41:38;;;;;;;12.38;2.70;;;;;;;7.31;86.06;101739.41;5042945;28;20052;-68
2024/01/23 00:44:04;;;;;;;25.65;3.75;;;;;;;7.29;86.39;101728.13;5042327;28;20434;-67
2024/01/23 00:46:29;;;;;;;23.85;3.70;;;;;;;7.31;86.31;101723.56;5045803;28;20543;-67
2024/01/23 00:48:55;;;;;;;14.20;2.67;;;;;;;7.29;86.12;101721.03;5040676;28;20036;-67
2024/01/23 00:51:20;;;;;;;18.73;3.25;;;;;;;7.23;86.39;101726.84;5042124;28;20131;-67
2024/01/23 00:53:45;;;;;;;25.30;3.67;;;;;;;7.23;86.39;101733.91;5038437;28;20162;-67
2024/01/23 00:56:11;;;;;;;23.77;3.53;;;;;;;7.25;86.53;101745.22;5039818;28;20032;-67
2024/01/23 00:58:36;;;;;;;16.53;3.23;;;;;;;7.24;86.66;101728.53;5049849;28;20490;-67
2024/01/23 01:01:02;;;;;;;20.13;3.55;;;;;;;7.21;86.77;101754.31;5044489;28;20527;-67
2024/01/23 01:03:27;;;;;;;17.02;3.00;;;;;;;7.21;86.55;101756.97;5043638;28;20032;-67
2024/01/23 01:05:52;;;;;;;21.60;3.20;;;;;;;7.20;86.56;101765.84;5041564;28;20557;-67
2024/01/23 01:08:17;;;;;;;22.02;3.85;;;;;;;7.15;86.31;101761.78;5040377;28;20032;-67
2024/01/23 01:10:43;;;;;;;17.05;3.15;;;;;;;7.12;86.54;101761.22;5043111;28;20029;-67
2024/01/23 01:13:09;;;;;;;23.23;4.28;;;;;;;7.04;86.83;101758.38;5041470;28;20147;-67
2024/01/23 01:15:34;;;;;;;25.40;3.38;;;;;;;6.98;86.73;101766.78;5042102;28;20146;-67
2024/01/23 01:18:00;;;;;;;24.02;3.67;;;;;;;6.96;86.81;101756.34;5043819;28;20090;-67
2024/01/23 01:20:25;;;;;;;20.33;3.50;;;;;;;6.88;86.79;101771.13;5036694;28;20041;-67
2024/01/23 01:22:51;;;;;;;21.75;3.88;;;;;;;6.84;87.14;101799.56;5044521;28;20036;-68
2024/01/23 01:25:17;;;;;;;25.35;4.18;;;;;;;6.78;87.47;101797.44;5034482;28;20029;-67
2024/01/23 01:27:42;;;;;;;20.10;3.17;;;;;;;6.79;87.62;101804.38;5043863;28;20124;-67
2024/01/23 01:30:08;;;;;;;24.75;3.90;;;;;;;6.72;87.69;101800.56;5043412;28;20028;-67
2024/01/23 01:32:33;;;;;;;20.90;3.10;;;;;;;6.67;87.63;101808.00;5041933;28;20032;-67
2024/01/23 01:34:58;;;;;;;27.70;4.00;;;;;;;6.70;87.52;101821.81;5041967;28;20500;-67
2024/01/23 01:37:24;;;;;;;19.17;3.80;;;;;;;6.73;87.92;101812.78;5044323;28;20540;-67
2024/01/23 01:39:50;;;;;;;30.33;4.20;;;;;;;6.71;87.53;101830.56;5044236;28;20783;-67
2024/01/23 01:42:15;;;;;;;21.73;3.53;;;;;;;6.72;87.41;101837.53;5037115;28;20036;-67
2024/01/23 01:44:41;;;;;;;21.60;4.27;;;;;;;6.71;87.80;101830.56;5042247;28;20117;-67
2024/01/23 01:47:08;;;;;;;19.40;3.33;;;;;;;6.68;87.77;101825.53;5042492;28;20033;-67
2024/01/23 01:49:34;;;;;;;21.98;3.50;;;;;;;6.66;87.92;101828.28;5042156;28;20076;-67
2024/01/23 01:51:59;;;;;;;26.63;4.27;;;;;;;6.57;87.77;101825.50;5043173;28;20029;-67
2024/01/23 01:54:26;;;;;;;18.40;2.80;;;;;;;6.53;88.13;101836.31;5040216;28;20436;-67
2024/01/23 01:56:52;;;;;;;18.63;3.60;;;;;;;6.55;88.24;101851.19;5043130;28;20552;-67
2024/01/23 01:59:20;;;;;;;22.90;3.57;;;;;;;6.48;88.51;101854.31;5040542;28;20478;-67
2024/01/23 02:01:45;;;;;;;21.93;3.60;;;;;;;6.50;88.33;101876.13;5040321;28;20040;-67
2024/01/23 02:04:11;;;;;;;24.20;3.57;;;;;;;6.51;88.41;101863.78;5049538;28;20028;-67
2024/01/23 02:06:36;;;;;;;21.13;3.53;;;;;;;6.52;88.46;101855.75;5041190;28;20098;-67
2024/01/23 02:09:02;;;;;;;22.03;3.27;;;;;;;6.42;88.56;101857.44;5033574;28;20132;-67
2024/01/23 02:11:28;;;;;;;22.47;4.07;;;;;;;6.41;89.31;101871.59;5041997;28;20044;-67
2024/01/23 02:13:53;;;;;;;21.87;3.60;;;;;;;6.47;88.82;101897.50;5040118;28;20026;-67
2024/01/23 02:16:19;;;;;;;23.47;3.70;;;;;;;6.49;89.19;101890.28;5039221;28;20497;-67
2024/01/23 02:18:44;;;;;;;21.53;3.60;;;;;;;6.44;88.90;101886.34;5030514;28;20123;-67
2024/01/23 02:21:12;;;;;;;16.93;3.07;;;;;;;6.38;89.49;101885.00;5041977;28;20033;-67
2024/01/23 02:23:37;;;;;;;28.83;4.30;;;;;;;6.39;89.53;101913.06;5042615;28;20076;-67
2024/01/23 02:26:03;;;;;;;18.20;3.80;;;;;;;6.44;89.43;101928.53;5038845;28;20493;-67
2024/01/23 02:28:28;;;;;;;22.57;3.53;;;;;;;6.41;89.34;101900.59;5042708;28;20547;-67
2024/01/23 02:30:54;;;;;;;22.63;3.57;;;;;;;6.43;89.44;101919.78;5039376;28;20406;-67
2024/01/23 02:33:19;;;;;;;20.07;3.47;;;;;;;6.44;89.43;101921.47;5038034;28;20036;-67
2024/01/23 02:35:44;;;;;;;16.20;3.60;;;;;;;6.40;89.40;101933.22;5047647;28;20127;-67
2024/01/23 02:38:10;;;;;;;22.43;3.37;;;;;;;6.50;88.97;101934.19;5047596;28;20044;-67
2024/01/23 02:40:35;;;;;;;18.43;3.33;;;;;;;6.36;89.44;101939.69;5045402;28;20020;-67
2024/01/23 02:43:01;;;;;;;20.43;3.30;;;;;;;6.40;89.04;101948.22;5042972;28;20108;-68
2024/01/23 02:45:26;;;;;;;24.53;4.00;;;;;;;6.33;89.47;101954.88;5048730;28;20132;-67
2024/01/23 02:47:51;;;;;;;25.27;3.90;;;;;;;6.33;89.61;101939.91;5040384;28;20525;-67
2024/01/23 02:50:17;;;;;;;23.73;3.37;;;;;;;6.41;89.12;101947.25;5041221;28;20043;-67
2024/01/23 02:52:42;;;;;;;24.13;4.10;;;;;;;6.34;89.48;101960.03;5042228;28;20080;-67
2024/01/23 02:55:08;;;;;;;27.87;4.37;;;;;;;6.31;89.88;101965.56;5043933;28;20103;-67
2024/01/23 02:57:33;;;;;;;19.53;3.33;;;;;;;6.35;89.73;101969.63;5045217;28;20024;-67
2024/01/23 02:59:58;;;;;;;21.17;3.57;;;;;;;6.39;89.50;101968.47;5041561;28;20426;-67
2024/01/23 03:02:24;;;;;;;19.07;3.70;;;;;;;6.34;89.40;101970.59;5044611;28;20033;-67
2024/01/23 03:04:50;;;;;;;21.83;3.50;;;;;;;6.34;89.72;101977.66;5037909;28;20045;-67
2024/01/23 03:07:16;;;;;;;22.43;4.10;;;;;;;6.28;89.69;101981.63;5042272;28;20151;-67
2024/01/23 03:09:42;;;;;;;21.87;3.47;;;;;;;6.26;89.69;101986.16;5034465;28;20126;-67
2024/01/23 03:12:18;;;;;;;22.63;3.73;;;;;;;6.23;90.45;101996.94;5043497;28;20103;-67
2024/01/23 03:14:44;;;;;;;21.83;4.23;;;;;;;6.21;90.45;101996.22;5042446;28;20040;-67
2024/01/23 03:17:13;;;;;;;19.30;3.20;;;;;;;6.21;90.61;102004.13;5043237;28;20028;-67
2024/01/23 03:19:39;;;;;;;23.98;4.65;;;;;;;6.29;90.26;102008.84;5042209;28;20028;-67
2024/01/23 03:22:05;;;;;;;17.00;3.73;;;;;;;6.28;89.98;102010.63;5041417;28;20029;-67
2024/01/23 03:24:31;;;;;;;21.20;4.00;;;;;;;6.22;90.38;102009.28;5043946;28;20398;-67
2024/01/23 03:26:56;;;;;;;30.87;5.00;;;;;;;6.14;90.15;102019.56;5039003;28;20433;-68
2024/01/23 03:29:24;;;;;;;21.80;4.03;;;;;;;6.08;90.58;102008.66;5040804;28;20120;-67
2024/01/23 03:31:49;;;;;;;19.87;3.80;;;;;;;6.05;90.71;102014.97;5039919;28;20584;-67
2024/01/23 03:34:15;;;;;;;20.80;4.13;;;;;;;6.11;90.76;102001.34;5040584;28;20029;-67
2024/01/23 03:36:40;;;;;;;23.20;3.70;;;;;;;6.07;90.68;102012.22;5038013;28;20029;-67
2024/01/23 03:39:05;;;;;;;27.03;4.23;;;;;;;6.08;91.03;102013.91;5039501;28;20016;-67
2024/01/23 03:41:31;;;;;;;25.07;4.27;;;;;;;6.07;91.19;102021.00;5040600;28;20028;-67
2024/01/23 03:43:56;;;;;;;21.13;4.03;;;;;;;6.05;91.01;102029.94;5040165;28;20186;-67
2024/01/23 03:46:21;;;;;;;23.77;4.17;;;;;;;6.03;91.01;102040.59;5038956;28;20478;-67
2024/01/23 03:48:47;;;;;;;26.00;4.73;;;;;;;5.98;91.07;102047.16;5040411;28;20053;-67
2024/01/23 03:51:12;;;;;;;28.10;4.20;;;;;;;5.94;91.15;102067.63;5041438;28;20087;-67
2024/01/23 03:53:38;;;;;;;27.23;3.77;;;;;;;5.92;91.69;102063.44;5038129;28;20044;-67
2024/01/23 03:56:03;;;;;;;28.50;3.93;;;;;;;5.99;91.56;102075.22;5040525;28;20028;-67
2024/01/23 03:58:29;;;;;;;25.53;4.07;;;;;;;5.96;91.40;102078.91;5039200;28;20025;-67
2024/01/23 04:00:57;;;;;;;20.70;4.17;;;;;;;5.98;91.09;102078.81;5040171;28;20632;-67
2024/01/23 04:03:22;;;;;;;32.03;3.77;;;;;;;5.87;91.03;102061.09;5039418;28;20108;-67
2024/01/23 04:05:48;;;;;;;24.37;3.70;;;;;;;5.88;91.26;102068.06;5040046;28;20033;-67
2024/01/23 04:08:13;;;;;;;23.53;3.40;;;;;;;5.88;91.60;102068.91;5039667;28;20791;-67
2024/01/23 04:10:38;;;;;;;24.97;4.10;;;;;;;5.87;91.67;102061.94;5039732;28;20055;-67
2024/01/23 04:13:04;;;;;;;24.73;4.13;;;;;;;5.92;91.06;102061.63;5036594;28;20048;-67
2024/01/23 04:15:29;;;;;;;22.07;3.57;;;;;;;5.84;91.41;102079.78;5041006;28;20061;-67
2024/01/23 04:17:56;;;;;;;22.00;3.97;;;;;;;5.80;91.34;102079.16;5040216;28;20021;-67
2024/01/23 04:20:21;;;;;;;29.77;4.00;;;;;;;5.85;91.39;102084.94;5039192;28;20215;-67
2024/01/23 04:22:46;;;;;;;22.93;3.53;;;;;;;5.89;90.89;102090.84;5039367;28;20143;-67
2024/01/23 04:25:12;;;;;;;23.67;4.43;;;;;;;5.86;91.13;102096.31;5038162;28;20137;-67
2024/01/23 04:27:37;;;;;;;30.13;4.27;;;;;;;5.84;90.98;102088.53;5040008;28;20048;-68
2024/01/23 04:30:03;;;;;;;28.27;4.83;;;;;;;5.80;90.95;102112.59;5038717;28;20514;-67
2024/01/23 04:32:28;;;;;;;25.43;3.93;;;;;;;5.73;91.03;102112.16;5039643;28;20107;-67
2024/01/23 04:34:53;;;;;;;28.83;3.97;;;;;;;5.72;91.05;102112.25;5048476;28;20020;-67
2024/01/23 04:37:19;;;;;;;26.60;4.57;;;;;;;5.69;91.50;102120.38;5054226;28;20040;-67
2024/01/23 04:39:44;;;;;;;24.97;4.40;;;;;;;5.63;91.20;102126.94;5037385;28;20017;-67
2024/01/23 04:42:10;;;;;;;25.60;3.53;;;;;;;5.67;91.27;102127.56;5039855;28;20036;-67
2024/01/23 04:44:35;;;;;;;24.80;4.27;;;;;;;5.63;91.32;102137.47;5041663;28;20037;-67
2024/01/23 04:47:00;;;;;;;26.23;3.73;;;;;;;5.62;91.41;102154.22;5037284;28;20029;-67
2024/01/23 04:49:25;;;;;;;21.93;3.63;;;;;;;5.59;91.66;102160.56;5055880;28;20028;-67
2024/01/23 04:51:51;;;;;;;23.60;3.97;;;;;;;5.60;91.79;102156.97;5038978;28;20064;-67
2024/01/23 04:54:16;;;;;;;25.43;3.70;;;;;;;5.56;91.52;102160.78;5045879;28;20028;-67
2024/01/23 04:56:41;;;;;;;21.80;4.50;;;;;;;5.57;91.51;102158.97;5042037;28;20037;-67
2024/01/23 04:59:07;;;;;;;24.30;3.93;;;;;;;5.54;91.55;102159.19;5046319;28;20021;-67
2024/01/23 05:01:32;;;;;;;28.17;4.67;;;;;;;5.51;91.61;102169.94;5043973;28;20026;-67
2024/01/23 05:03:58;;;;;;;21.00;4.63;;;;;;;5.49;91.81;102166.53;5045926;28;20032;-67
2024/01/23 05:06:23;;;;;;;27.23;4.30;;;;;;;5.51;91.74;102172.59;5035409;28;20040;-67
2024/01/23 05:08:49;;;;;;;23.53;3.77;;;;;;;5.42;92.17;102176.66;5048777;28;20021;-67
2024/01/23 05:11:14;;;;;;;26.80;3.93;;;;;;;5.48;91.77;102207.00;5044381;28;20086;-67
2024/01/23 05:13:42;;;;;;;28.90;4.73;;;;;;;5.48;92.37;102207.00;5041083;28;20059;-67
2024/01/23 05:16:08;;;;;;;26.40;4.00;;;;;;;5.53;92.29;102220.75;5041463;28;20028;-67
2024/01/23 05:18:33;;;;;;;31.70;5.37;;;;;;;5.45;92.26;102217.75;5044400;28;20021;-67
2024/01/23 05:20:58;;;;;;;31.70;3.67;;;;;;;5.39;92.26;102210.28;5041268;28;20047;-67
2024/01/23 05:23:24;;;;;;;25.97;3.67;;;;;;;5.36;92.22;102221.88;5045212;28;20066;-67
2024/01/23 05:25:49;;;;;;;25.10;3.67;;;;;;;5.36;92.54;102229.78;5043153;28;20033;-67
2024/01/23 05:28:15;;;;;;;27.33;3.87;;;;;;;5.34;93.07;102223.75;5043006;28;20706;-67
2024/01/23 05:30:40;;;;;;;25.07;3.40;;;;;;;5.37;92.48;102238.53;5045741;28;20086;-67
2024/01/23 05:33:05;;;;;;;30.50;4.27;;;;;;;5.35;92.57;102227.25;5041685;28;20032;-67
2024/01/23 05:35:30;;;;;;;19.07;3.77;;;;;;;5.29;92.87;102239.88;5045609;28;20394;-67
2024/01/23 05:37:56;;;;;;;29.03;4.20;;;;;;;5.36;93.23;102247.38;5040712;28;20120;-67
2024/01/23 05:40:21;;;;;;;29.87;4.57;;;;;;;5.44;92.81;102266.13;5042099;28;20052;-67
2024/01/23 05:42:46;;;;;;;25.07;4.27;;;;;;;5.41;92.93;102264.56;5040009;28;20140;-67
2024/01/23 05:45:13;;;;;;;22.47;3.87;;;;;;;5.42;92.35;102273.28;5042202;28;20028;-67
2024/01/23 05:47:38;;;;;;;31.63;4.10;;;;;;;5.41;92.79;102272.44;5040867;28;20060;-67
2024/01/23 05:50:04;;;;;;;25.27;4.40;;;;;;;5.42;93.00;102283.84;5046037;28;20605;-67
2024/01/23 05:52:29;;;;;;;30.73;4.27;;;;;;;5.37;93.21;102289.41;5038878;28;20090;-67
2024/01/23 05:54:55;;;;;;;26.80;3.83;;;;;;;5.33;93.10;102289.72;5042484;28;20037;-67
2024/01/23 05:57:20;;;;;;;27.03;4.50;;;;;;;5.34;93.14;102299.31;5040977;28;21471;-67
2024/01/23 05:59:45;;;;;;;20.80;4.10;;;;;;;5.31;93.25;102304.78;5043910;28;20064;-67
2024/01/23 06:02:10;;;;;;;24.47;3.77;;;;;;;5.27;93.50;102302.34;5042331;28;20283;-67
2024/01/23 06:04:36;;;;;;;23.30;4.53;;;;;;;5.24;93.46;102305.19;5040545;28;20024;-67
2024/01/23 06:07:02;;;;;;;24.07;4.13;;;;;;;5.15;93.54;102304.91;5036614;28;20029;-67
2024/01/23 06:09:29;;;;;;;29.60;3.83;;;;;;;5.12;93.87;102310.38;5035998;28;20041;-67
2024/01/23 06:11:55;;;;;;;32.93;5.17;;;;;;;5.13;94.00;102304.19;5044410;28;20063;-67
2024/01/23 06:14:20;;;;;;;24.50;4.27;;;;;;;5.10;94.40;102304.38;5040147;28;20418;-67
2024/01/23 06:16:46;;;;;;;25.10;4.53;;;;;;;5.13;94.35;102306.81;5031073;28;20045;-67
2024/01/23 06:19:12;;;;;;;29.50;4.57;;;;;;;5.15;94.45;102313.66;5032880;28;20622;-67
2024/01/23 06:21:38;;;;;;;28.97;4.73;;;;;;;5.12;94.78;102308.59;5035568;28;20037;-67
2024/01/23 06:24:04;;;;;;;21.80;3.63;;;;;;;5.11;94.54;102319.22;5036413;28;20033;-67
2024/01/23 06:26:30;;;;;;;29.37;3.60;;;;;;;5.09;94.95;102323.75;5038442;28;20029;-67
2024/01/23 06:28:55;;;;;;;24.83;3.87;;;;;;;5.07;94.64;102328.28;5040156;28;20036;-67
2024/01/23 06:31:25;;;;;;;23.50;4.03;;;;;;;5.01;94.66;102337.41;5039745;28;20024;-67
2024/01/23 06:33:54;;;;;;;25.17;4.43;;;;;;;4.93;94.99;102339.69;5039113;28;20029;-67
2024/01/23 06:36:20;;;;;;;26.33;4.17;;;;;;;4.91;95.31;102341.56;5040804;28;20131;-67
2024/01/23 06:38:45;;;;;;;24.57;3.83;;;;;;;4.83;95.39;102347.31;5047951;28;20141;-67
2024/01/23 06:41:10;;;;;;;24.37;4.07;;;;;;;4.79;95.82;102345.81;5038729;28;20021;-67
2024/01/23 06:43:36;;;;;;;26.77;4.40;;;;;;;4.79;96.25;102360.75;5045467;28;20052;-66
2024/01/23 06:46:02;;;;;;;25.30;4.13;;;;;;;4.77;96.59;102362.66;5042129;28;20128;-67
2024/01/23 06:48:27;;;;;;;24.23;3.93;;;;;;;4.74;96.51;102352.31;5035865;28;20028;-67
2024/01/23 06:50:53;;;;;;;27.73;5.00;;;;;;;4.69;96.81;102354.41;5044992;28;20035;-67
2024/01/23 06:53:18;;;;;;;25.03;4.30;;;;;;;4.71;97.05;102347.25;5048958;28;20064;-67
2024/01/23 06:55:44;;;;;;;31.67;4.53;;;;;;;4.75;97.10;102361.91;5034901;28;20198;-67
2024/01/23 06:58:09;;;;;;;30.97;4.27;;;;;;;4.72;97.77;102368.19;5037992;28;20115;-67
2024/01/23 07:00:35;;;;;;;28.20;4.60;;;;;;;4.74;97.55;102360.22;5037746;28;20041;-67
2024/01/23 07:03:00;;;;;;;35.63;4.37;;;;;;;4.72;97.82;102370.84;5035920;28;20036;-67
2024/01/23 07:05:26;;;;;;;22.90;4.50;;;;;;;4.74;98.03;102379.47;5036167;28;20493;-67
2024/01/23 07:07:53;;;;;;;25.80;3.83;;;;;;;4.71;98.13;102373.56;5037075;28;20475;-67
2024/01/23 07:10:19;;;;;;;30.27;4.77;;;;;;;4.69;98.28;102370.19;5034781;28;20033;-67
2024/01/23 07:12:44;;;;;;;29.83;4.30;;;;;;;4.65;98.73;102370.38;5034853;28;20029;-67
2024/01/23 07:15:09;;;;;;;32.10;4.10;;;;;;;4.62;98.83;102365.28;5043722;28;20052;-67
2024/01/23 07:17:35;;;;;;;30.03;4.53;;;;;;;4.64;99.01;102376.56;5038284;28;20067;-67
2024/01/23 07:20:00;;;;;;;23.10;4.07;;;;;;;4.62;99.13;102370.53;5037347;28;20036;-67
2024/01/23 07:22:26;;;;;;;27.47;4.30;;;;;;;4.62;98.98;102369.69;5037590;28;20666;-67
2024/01/23 07:24:51;;;;;;;29.43;4.47;;;;;;;4.57;99.44;102382.28;5039979;28;20032;-67
2024/01/23 07:27:18;;;;;;;34.80;5.00;;;;;;;4.53;99.46;102392.16;5038196;28;20048;-67
2024/01/23 07:29:43;;;;;;;25.27;4.30;;;;;;;4.52;99.55;102387.84;5043649;28;20043;-67
2024/01/23 07:32:09;;;;;;;29.87;4.53;;;;;;;4.48;99.77;102390.75;5033624;28;20033;-67
2024/01/23 07:34:34;;;;;;;27.50;4.20;;;;;;;4.45;100.00;102390.94;5030001;28;20328;-67
2024/01/23 07:36:59;;;;;;;27.00;4.73;;;;;;;4.45;100.00;102404.09;5025021;28;20028;-67
2024/01/23 07:39:25;;;;;;;32.27;4.87;;;;;;;4.44;100.00;102408.50;5036858;28;20360;-67
2024/01/23 07:41:50;;;;;;;31.37;4.87;;;;;;;4.42;100.00;102410.38;5044197;28;20050;-67
2024/01/23 07:44:16;;;;;;;27.00;4.53;;;;;;;4.41;100.00;102413.94;5030101;28;20037;-67
2024/01/23 07:46:42;;;;;;;35.00;4.83;;;;;;;4.46;100.00;102424.19;5041094;28;20033;-67
2024/01/23 07:49:07;;;;;;;30.63;4.40;;;;;;;4.48;100.00;102422.31;5041712;28;20028;-67
2024/01/23 07:51:48;;;;;;;25.23;4.20;;;;;;;4.51;100.00;102415.09;5034370;28;20040;-67
2024/01/23 07:54:14;;;;;;;26.07;4.50;;;;;;;4.54;100.00;102414.91;5053649;28;20040;-67
2024/01/23 07:56:39;;;;;;;33.63;4.47;;;;;;;4.50;100.00;102416.03;5041052;28;20139;-67
2024/01/23 07:59:05;;;;;;;27.97;4.90;;;;;;;4.59;100.00;102431.25;5040682;28;20028;-67
2024/01/23 08:01:30;;;;;;;31.73;4.40;;;;;;;4.61;100.00;102436.41;5041646;28;20029;-67
2024/01/23 08:03:57;;;;;;;25.73;3.53;;;;;;;4.63;100.00;102440.66;5042140;28;20033;-67
2024/01/23 08:06:22;;;;;;;31.40;5.37;;;;;;;4.68;99.67;102443.00;5033111;28;20036;-67
2024/01/23 08:08:48;;;;;;;30.87;4.60;;;;;;;4.73;99.78;102451.47;5036189;28;20025;-66
2024/01/23 08:11:13;;;;;;;29.63;4.90;;;;;;;4.75;99.46;102452.22;5040462;28;20108;-67
2024/01/23 08:13:38;;;;;;;23.77;4.37;;;;;;;4.78;99.14;102464.34;5037409;28;20028;-67
2024/01/23 08:16:08;;;;;;;32.50;4.20;;;;;;;4.79;99.28;102466.03;5033277;28;20497;-67
2024/01/23 08:18:33;;;;;;;31.02;4.88;;;;;;;4.82;98.81;102477.22;5031163;28;20021;-67
2024/01/23 08:20:58;;;;;;;33.20;5.47;;;;;;;4.87;98.67;102474.31;5042028;28;20036;-67
2024/01/23 08:23:23;;;;;;;27.87;4.27;;;;;;;4.89;98.77;102475.91;5043108;28;20108;-67
2024/01/23 08:25:49;;;;;;;32.87;5.23;;;;;;;4.90;98.37;102476.75;5048179;28;20025;-67
2024/01/23 08:28:14;;;;;;;28.07;5.47;;;;;;;4.92;98.55;102477.53;5041729;28;20078;-67
2024/01/23 08:30:39;;;;;;;24.60;4.73;;;;;;;4.94;98.26;102491.44;5040625;28;20029;-67
2024/01/23 08:33:05;;;;;;;31.87;5.70;;;;;;;4.95;98.55;102493.13;5042085;28;20159;-67
2024/01/23 08:35:30;;;;;;;25.00;4.30;;;;;;;4.96;98.45;102497.47;5045648;28;20040;-67
2024/01/23 08:37:55;;;;;;;30.97;4.83;;;;;;;5.02;98.49;102499.72;5041498;28;20026;-67
2024/01/23 08:40:21;;;;;;;23.53;4.60;;;;;;;5.05;98.25;102509.22;5050251;28;20704;-67
2024/01/23 08:42:47;;;;;;;31.97;4.57;;;;;;;5.06;97.97;102511.75;5042438;28;20033;-67
2024/01/23 08:45:12;;;;;;;29.43;4.90;;;;;;;5.11;98.30;102520.19;5042695;28;20113;-67
2024/01/23 08:47:38;;;;;;;22.97;4.20;;;;;;;5.12;98.34;102521.88;5045622;28;20395;-67
2024/01/23 08:50:04;;;;;;;24.73;5.47;;;;;;;5.15;98.18;102528.75;5045568;28;20060;-67
2024/01/23 08:52:29;;;;;;;24.93;5.33;;;;;;;5.15;98.13;102531.38;5042424;28;20022;-67
2024/01/23 08:54:55;;;;;;;30.07;5.37;;;;;;;5.23;98.04;102531.78;5039561;28;20441;-67
2024/01/23 08:57:22;;;;;;;27.57;4.83;;;;;;;5.24;98.24;102523.78;5042348;28;20086;-67
2024/01/23 08:59:48;;;;;;;31.83;5.27;;;;;;;5.24;97.99;102542.22;5042136;28;20064;-67
2024/01/23 09:02:14;;;;;;;24.20;4.67;;;;;;;5.25;98.22;102536.03;5039841;28;20048;-67
2024/01/23 09:04:39;;;;;;;28.57;5.00;;;;;;;5.28;97.88;102538.47;5045120;28;20033;-67
2024/01/23 09:07:05;;;;;;;28.87;6.07;;;;;;;5.32;97.79;102527.72;5041509;28;20035;-67
2024/01/23 09:09:30;;;;;;;27.97;5.03;;;;;;;5.34;97.75;102525.84;5039511;28;20033;-67
2024/01/23 09:11:55;;;;;;;29.97;4.93;;;;;;;5.35;98.14;102517.84;5055862;28;20050;-67
2024/01/23 09:14:21;;;;;;;27.47;4.87;;;;;;;5.39;98.18;102524.63;5044883;28;20025;-67
2024/01/23 09:16:47;;;;;;;32.53;5.17;;;;;;;5.42;97.93;102518.31;5041160;28;20056;-67
2024/01/23 09:19:13;;;;;;;22.30;5.33;;;;;;;5.44;97.43;102529.59;5040997;28;20025;-67
2024/01/23 09:21:39;;;;;;;23.53;5.33;;;;;;;5.48;97.74;102521.38;5049807;28;20436;-67
2024/01/23 09:24:05;;;;;;;31.40;4.87;;;;;;;5.42;97.66;102498.06;5046114;28;20025;-67
2024/01/23 09:26:30;;;;;;;24.73;5.00;;;;;;;5.60;97.45;102522.44;5047659;28;20040;-67
2024/01/23 09:28:55;;;;;;;25.37;4.73;;;;;;;5.68;97.39;102512.25;5046114;28;20498;-67
2024/01/23 09:31:22;;;;;;;24.17;5.03;;;;;;;5.74;97.24;102514.47;5043058;28;20503;-67
2024/01/23 09:33:48;;;;;;;23.67;4.87;;;;;;;5.79;97.09;102516.84;5050691;28;20127;-67
2024/01/23 09:36:13;;;;;;;25.53;4.83;;;;;;;5.83;96.51;102513.91;5047543;28;20041;-67
2024/01/23 09:38:39;;;;;;;29.00;5.87;;;;;;;5.88;96.22;102518.88;5045535;28;20489;-67
2024/01/23 09:41:11;;;;;;;26.70;4.47;;;;;;;5.93;95.93;102522.09;5043980;28;20111;-67
2024/01/23 09:43:40;;;;;;;31.97;5.07;;;;;;;5.98;95.51;102522.63;5056396;28;20029;-67
2024/01/23 09:46:11;;;;;;;26.73;4.70;;;;;;;6.05;95.33;102525.72;5040781;28;20025;-67
2024/01/23 09:48:38;;;;;;;27.07;6.03;;;;;;;6.07;95.01;102514.16;5046403;28;20025;-67
2024/01/23 09:51:11;;;;;;;25.47;5.00;;;;;;;6.12;94.90;102513.84;5044445;28;20028;-67
2024/01/23 09:53:39;;;;;;;32.07;4.97;;;;;;;6.13;94.76;102523.44;5050458;28;20108;-67
2024/01/23 09:56:06;;;;;;;24.83;5.33;;;;;;;6.16;94.88;102518.81;5045003;28;20017;-67
2024/01/23 09:58:32;;;;;;;26.87;4.57;;;;;;;6.20;94.43;102519.44;5044231;28;20071;-67
2024/01/23 10:00:58;;;;;;;29.23;4.67;;;;;;;6.24;94.55;102533.28;5051686;28;20032;-67
2024/01/23 10:03:26;;;;;;;32.37;4.87;;;;;;;6.26;94.34;102524.31;5049091;28;20027;-67
2024/01/23 10:05:52;;;;;;;37.60;6.00;;;;;;;6.29;93.71;102532.03;5037213;28;20028;-67
2024/01/23 10:08:18;;;;;;;23.17;4.23;;;;;;;6.30;93.75;102539.00;5042460;28;20025;-67
2024/01/23 10:10:43;;;;;;;30.37;5.43;;;;;;;6.36;93.89;102549.16;5052495;28;20024;-67
2024/01/23 10:13:12;;;;;;;29.17;5.23;;;;;;;6.39;93.43;102553.41;5041550;28;20028;-67
2024/01/23 10:15:38;;;;;;;26.10;5.00;;;;;;;6.41;93.38;102546.22;5044744;28;20071;-67
2024/01/23 10:18:05;;;;;;;33.27;5.63;;;;;;;6.43;93.03;102553.09;5042397;28;20513;-67
2024/01/23 10:20:31;;;;;;;29.17;5.20;;;;;;;6.46;92.74;102542.31;5040288;28;20022;-67
2024/01/23 10:22:58;;;;;;;24.93;4.93;;;;;;;6.51;92.84;102548.13;5040767;28;20033;-67
2024/01/23 10:25:28;;;;;;;26.90;5.07;;;;;;;6.55;92.74;102553.19;5047014;28;20028;-67
2024/01/23 10:27:54;;;;;;;31.17;5.60;;;;;;;6.61;92.67;102537.78;5045165;28;20021;-67
2024/01/23 10:30:20;;;;;;;28.57;5.03;;;;;;;6.66;92.31;102530.44;5041807;28;20107;-67
2024/01/23 10:32:46;;;;;;;28.97;5.70;;;;;;;6.74;91.95;102528.13;5042698;28;20036;-67
2024/01/23 10:35:11;;;;;;;26.13;5.13;;;;;;;6.78;91.13;102536.66;5036777;28;20036;-67
2024/01/23 10:37:38;;;;;;;30.97;5.57;;;;;;;6.85;91.51;102548.50;5035410;28;20025;-67
2024/01/23 10:40:05;;;;;;;26.55;4.75;;;;;;;6.91;91.28;102550.72;5038188;28;20597;-67
2024/01/23 10:42:31;;;;;;;29.37;5.87;;;;;;;6.99;90.84;102545.78;5039302;28;20035;-67
2024/01/23 10:44:58;;;;;;;29.88;5.10;;;;;;;7.02;90.59;102542.91;5041230;28;20029;-67
2024/01/23 10:47:23;;;;;;;28.45;5.03;;;;;;;7.04;90.33;102546.28;5049256;28;20056;-67
2024/01/23 10:49:49;;;;;;;31.20;5.50;;;;;;;7.04;90.05;102548.09;5039871;28;20127;-67
2024/01/23 10:52:18;;;;;;;25.35;5.00;;;;;;;7.03;89.46;102536.69;5047877;28;20060;-67
2024/01/23 10:54:46;;;;;;;24.60;5.53;;;;;;;7.02;89.17;102542.91;5055201;28;20033;-67
2024/01/23 10:57:22;;;;;;;28.10;5.72;;;;;;;7.02;89.13;102534.16;5034798;28;20033;-67
2024/01/23 10:59:48;;;;;;;24.92;5.03;;;;;;;7.07;89.10;102543.44;5041468;28;20070;-67
2024/01/23 11:02:29;;;;;;;23.08;5.18;;;;;;;7.19;89.05;102523.25;5045302;28;20024;-67
2024/01/23 11:04:55;;;;;;;28.80;5.40;;;;;;;7.29;88.72;102512.88;5041312;28;20068;-67
2024/01/23 11:07:49;;;;;;;26.02;4.45;;;;;;;7.27;87.84;102513.00;5041148;28;20772;-68
2024/01/23 11:10:20;;;;;;;23.05;4.45;;;;;;;7.23;87.82;102513.28;5040539;28;20033;-67
2024/01/23 11:13:04;;;;;;;28.60;4.88;;;;;;;7.21;87.37;102499.34;5041158;28;20048;-67
2024/01/23 11:15:30;;;;;;;25.40;4.57;;;;;;;7.16;87.29;102489.09;5036777;28;20050;-67
2024/01/23 11:18:22;;;;;;;26.73;5.03;;;;;;;7.18;87.25;102484.56;5039647;28;20033;-67